createdAt,value
2022-11-05T00:02:00.329Z,20.8
2022-11-05T00:04:17.845Z,20.8
2022-11-05T00:06:35.559Z,20.4
2022-11-05T00:08:53.489Z,20.6
2022-11-05T00:11:15.220Z,20.5
2022-11-05T00:13:28.868Z,20.4
2022-11-05T00:15:46.566Z,20.9
2022-11-05T00:18:04.630Z,20.6
2022-11-05T00:20:22.146Z,20.6
2022-11-05T00:22:40.241Z,20.8
2022-11-05T00:24:57.790Z,20.9
2022-11-05T00:27:15.697Z,20
2022-11-05T00:29:33.134Z,20.1
2022-11-05T00:31:51.010Z,20
2022-11-05T00:34:08.716Z,20.6
2022-11-05T00:36:26.420Z,20.6
2022-11-05T00:38:44.308Z,20.7
2022-11-05T00:41:01.960Z,20
2022-11-05T00:43:19.859Z,20.1
2022-11-05T00:45:37.380Z,19.9
2022-11-05T00:47:55.774Z,20
2022-11-05T00:50:13.574Z,20.3
2022-11-05T00:52:31.568Z,20.4
2022-11-05T00:54:49.385Z,20.8
2022-11-05T00:57:07.189Z,20.3
2022-11-05T00:59:25.017Z,20.6
2022-11-05T01:01:42.691Z,20.5
2022-11-05T01:04:00.582Z,20.2
2022-11-05T01:06:18.423Z,20.6
2022-11-05T01:08:36.287Z,20.7
2022-11-05T01:10:53.993Z,19.8
2022-11-05T01:13:13.067Z,20.1
2022-11-05T01:15:29.620Z,20.1
2022-11-05T01:17:47.436Z,20.7
2022-11-05T01:20:04.954Z,19.9
2022-11-05T01:22:22.753Z,20.1
2022-11-05T01:24:40.566Z,20.6
2022-11-05T01:26:58.066Z,20.1
2022-11-05T01:29:16.032Z,20.1
2022-11-05T01:31:34.081Z,20.4
2022-11-05T01:33:51.783Z,20.4
2022-11-05T01:36:09.426Z,20.4
2022-11-05T01:38:27.435Z,20.6
2022-11-05T01:40:45.423Z,20.6
2022-11-05T01:43:03.238Z,20.4
2022-11-05T01:45:20.933Z,20.3
2022-11-05T01:47:38.694Z,20.3
2022-11-05T01:49:56.992Z,20.6
2022-11-05T01:52:14.477Z,20.8
2022-11-05T01:54:33.024Z,20.6
2022-11-05T01:56:50.558Z,20.6
2022-11-05T01:59:08.482Z,19.9
2022-11-05T02:01:26.253Z,19.8
2022-11-05T02:03:44.450Z,20
2022-11-05T02:06:01.899Z,20.3
2022-11-05T02:08:19.686Z,20.4
2022-11-05T02:10:37.688Z,20.7
2022-11-05T02:12:55.456Z,20.6
2022-11-05T02:15:13.432Z,20.3
2022-11-05T02:17:31.066Z,20.3
2022-11-05T02:19:48.896Z,19.8
2022-11-05T02:22:06.657Z,19.9
2022-11-05T02:24:24.662Z,20.5
2022-11-05T02:26:42.776Z,20.6
2022-11-05T02:29:00.329Z,20.6
2022-11-05T02:31:18.267Z,19.9
2022-11-05T02:33:35.520Z,19.8
2022-11-05T02:35:53.556Z,19.8
2022-11-05T02:38:11.231Z,19.7
2022-11-05T02:40:29.046Z,19.6
2022-11-05T02:42:46.772Z,20.3
2022-11-05T02:45:04.827Z,20
2022-11-05T02:47:22.504Z,20.2
2022-11-05T02:49:40.586Z,20.4
2022-11-05T02:51:58.305Z,20.3
2022-11-05T02:54:16.086Z,20.4
2022-11-05T02:56:33.910Z,20.2
2022-11-05T02:58:51.565Z,19.8
2022-11-05T03:01:09.498Z,19.8
2022-11-05T03:03:27.213Z,19.9
2022-11-05T03:05:45.237Z,20.3
2022-11-05T03:08:03.022Z,20.3
2022-11-05T03:10:21.085Z,20.4
2022-11-05T03:12:38.813Z,20.2
2022-11-05T03:14:56.502Z,20.3
2022-11-05T03:17:14.206Z,20.3
2022-11-05T03:19:31.978Z,20.1
2022-11-05T03:21:50.055Z,20.4
2022-11-05T03:24:07.888Z,20.6
2022-11-05T03:26:25.803Z,20.3
2022-11-05T03:28:43.634Z,20.1
2022-11-05T03:31:01.556Z,20.2
2022-11-05T03:33:19.814Z,20.3
2022-11-05T03:35:37.215Z,20.4
2022-11-05T03:37:55.072Z,20.1
2022-11-05T03:40:12.907Z,20.5
2022-11-05T03:42:30.756Z,20.2
2022-11-05T03:44:48.340Z,20.3
2022-11-05T03:47:06.251Z,19.7
2022-11-05T03:49:23.934Z,19.8
2022-11-05T03:51:41.929Z,20.2
2022-11-05T03:53:59.450Z,19.7
2022-11-05T03:56:17.524Z,20.3
2022-11-05T03:58:35.532Z,20.3
2022-11-05T04:00:53.289Z,19.9
2022-11-05T04:03:11.324Z,20.2
2022-11-05T04:05:29.393Z,20
2022-11-05T04:07:46.729Z,19.9
2022-11-05T04:10:05.154Z,20.4
2022-11-05T04:12:22.841Z,20.4
2022-11-05T04:14:40.378Z,20.1
2022-11-05T04:16:58.358Z,20.2
2022-11-05T04:19:16.076Z,20.3
2022-11-05T04:21:34.140Z,20.2
2022-11-05T04:23:51.876Z,20.3
2022-11-05T04:26:09.767Z,19.8
2022-11-05T04:28:27.627Z,20.2
2022-11-05T04:30:45.280Z,20.2
2022-11-05T04:33:03.053Z,19.6
2022-11-05T04:35:20.810Z,19.4
2022-11-05T04:37:38.821Z,19.8
2022-11-05T04:39:56.598Z,20
2022-11-05T04:42:14.676Z,20.1
2022-11-05T04:44:32.719Z,19.9
2022-11-05T04:46:50.520Z,19.6
2022-11-05T04:49:08.197Z,20.2
2022-11-05T04:51:25.910Z,19.9
2022-11-05T04:53:44.104Z,20.1
2022-11-05T04:56:01.787Z,20.3
2022-11-05T04:58:19.823Z,19.8
2022-11-05T05:00:37.604Z,20.3
2022-11-05T05:02:55.442Z,19.9
2022-11-05T05:05:13.182Z,19.3
2022-11-05T05:07:31.546Z,19.4
2022-11-05T05:09:49.243Z,19.9
2022-11-05T05:12:06.820Z,19.5
2022-11-05T05:14:24.760Z,19.3
2022-11-05T05:16:42.452Z,20.2
2022-11-05T05:19:00.367Z,19.5
2022-11-05T05:21:17.972Z,19.4
2022-11-05T05:23:35.906Z,19.6
2022-11-05T05:25:53.509Z,19.3
2022-11-05T05:28:11.592Z,19.8
2022-11-05T05:30:29.258Z,19.7
2022-11-05T05:32:47.025Z,19.5
2022-11-05T05:35:04.560Z,19.9
2022-11-05T05:37:22.419Z,19.4
2022-11-05T05:39:40.155Z,19.9
2022-11-05T05:41:57.932Z,19.5
2022-11-05T05:44:15.759Z,19.4
2022-11-05T05:46:33.450Z,19.9
2022-11-05T05:48:51.428Z,19.6
2022-11-05T05:51:09.158Z,19.9
2022-11-05T05:53:27.015Z,19.4
2022-11-05T05:55:44.629Z,19.3
2022-11-05T05:58:02.398Z,19.5
2022-11-05T06:00:20.429Z,19.5
2022-11-05T06:02:38.039Z,19.3
2022-11-05T06:04:55.978Z,19.9
2022-11-05T06:07:13.748Z,19.8
2022-11-05T06:09:31.721Z,20.1
2022-11-05T06:11:49.529Z,19.8
2022-11-05T06:14:07.347Z,19.3
2022-11-05T06:16:26.021Z,19.6
2022-11-05T06:18:43.181Z,19.6
2022-11-05T06:21:00.936Z,19.6
2022-11-05T06:23:18.557Z,20.1
2022-11-05T06:25:40.980Z,19.9
2022-11-05T06:27:54.289Z,20.4
2022-11-05T06:30:12.153Z,19.9
2022-11-05T06:32:29.789Z,20.1
2022-11-05T06:34:47.699Z,20.1
2022-11-05T06:37:05.588Z,20.2
2022-11-05T06:39:23.425Z,20.1
2022-11-05T06:44:16.287Z,19.8
2022-11-05T06:46:34.133Z,19.9
2022-11-05T06:48:51.863Z,19.9
2022-11-05T06:51:09.569Z,19.6
2022-11-05T06:53:27.494Z,19.9
2022-11-05T06:55:45.244Z,20
2022-11-05T06:58:02.912Z,20.1
2022-11-05T07:00:20.714Z,20.2
2022-11-05T07:02:38.716Z,19.7
2022-11-05T07:04:56.211Z,19.9
2022-11-05T07:07:13.972Z,20.3
2022-11-05T07:09:31.805Z,20.1
2022-11-05T07:11:49.454Z,19.9
2022-11-05T07:14:07.150Z,20.3
2022-11-05T07:16:24.901Z,20.1
2022-11-05T07:18:42.682Z,20.1
2022-11-05T07:21:00.483Z,20.4
2022-11-05T07:23:18.152Z,20.3
2022-11-05T07:25:35.943Z,20.1
2022-11-05T07:27:53.626Z,20.3
2022-11-05T07:30:11.583Z,20.6
2022-11-05T07:32:29.243Z,20.6
2022-11-05T07:34:46.879Z,20.6
2022-11-05T07:37:04.789Z,20.3
2022-11-05T07:39:22.652Z,20.7
2022-11-05T07:41:40.647Z,20.6
2022-11-05T07:43:58.180Z,20.7
2022-11-05T07:46:16.211Z,20.8
2022-11-05T07:48:34.200Z,20.8
2022-11-05T07:50:51.948Z,20.6
2022-11-05T07:53:09.849Z,21.1
2022-11-05T07:55:27.395Z,21.1
2022-11-05T07:57:45.333Z,21.3
2022-11-05T08:00:02.945Z,21.4
2022-11-05T08:02:21.187Z,20.9
2022-11-05T08:04:38.728Z,20.9
2022-11-05T08:09:14.325Z,20.4
2022-11-05T08:11:32.151Z,20.6
2022-11-05T08:13:49.948Z,20.9
2022-11-05T08:16:07.857Z,21
2022-11-05T08:18:25.544Z,20.5
2022-11-05T08:20:43.311Z,20.8
2022-11-05T08:23:01.322Z,20.9
2022-11-05T08:25:18.982Z,20.8
2022-11-05T08:27:36.949Z,20.7
2022-11-05T08:29:54.864Z,21
2022-11-05T08:34:29.951Z,21.4
2022-11-05T08:36:47.390Z,20.6
2022-11-05T08:39:04.638Z,21.3
2022-11-05T08:41:22.034Z,21.2
2022-11-05T08:43:39.625Z,21.1
2022-11-05T08:45:57.215Z,21.3
2022-11-05T08:48:14.605Z,21.4
2022-11-05T08:50:31.989Z,21.3
2022-11-05T08:52:49.572Z,21.6
2022-11-05T08:55:06.927Z,21.8
2022-11-05T08:57:24.510Z,22.3
2022-11-05T08:59:41.917Z,22.3
2022-11-05T09:01:59.636Z,22.3
2022-11-05T09:04:17.314Z,22.9
2022-11-05T09:06:34.277Z,22.2
2022-11-05T09:08:51.952Z,22.3
2022-11-05T09:11:09.195Z,22.3
2022-11-05T09:13:45.917Z,22.9
2022-11-05T09:16:03.270Z,22.4
2022-11-05T09:18:21.453Z,22.9
2022-11-05T09:20:38.364Z,22.3
2022-11-05T09:22:55.998Z,22.4
2022-11-05T09:25:13.199Z,22.4
2022-11-05T09:27:30.988Z,22.8
2022-11-05T09:29:48.228Z,22.9
2022-11-05T09:32:05.765Z,22.6
2022-11-05T09:34:23.325Z,22.6
2022-11-05T09:36:40.600Z,22.4
2022-11-05T09:38:58.369Z,22.8
2022-11-05T09:41:15.721Z,22.4
2022-11-05T09:43:33.322Z,22.9
2022-11-05T09:45:51.126Z,22.5
2022-11-05T09:48:08.306Z,22.1
2022-11-05T09:50:25.664Z,22.6
2022-11-05T09:52:42.959Z,22.6
2022-11-05T09:55:00.599Z,22.9
2022-11-05T09:57:18.065Z,22.7
2022-11-05T09:59:35.806Z,22.9
2022-11-05T10:01:53.105Z,22.6
2022-11-05T10:04:10.591Z,22.7
2022-11-05T10:06:27.979Z,22.8
2022-11-05T10:08:45.548Z,23.2
2022-11-05T10:11:03.082Z,22.6
2022-11-05T10:13:20.588Z,22.6
2022-11-05T10:15:38.074Z,23.1
2022-11-05T10:17:55.497Z,22.6
2022-11-05T10:20:13.165Z,22.6
2022-11-05T10:22:49.747Z,22.7
2022-11-05T10:25:05.555Z,22.8
2022-11-05T10:27:22.990Z,22.8
2022-11-05T10:29:40.272Z,22.8
2022-11-05T10:31:57.634Z,22.8
2022-11-05T10:34:15.153Z,22.8
2022-11-05T10:36:32.537Z,22.9
2022-11-05T10:38:49.901Z,22.6
2022-11-05T10:41:07.281Z,22.6
2022-11-05T10:43:24.572Z,22.9
2022-11-05T10:45:42.027Z,22.6
2022-11-05T10:47:59.418Z,22.4
2022-11-05T10:50:16.859Z,22.6
2022-11-05T10:52:34.277Z,22.6
2022-11-05T10:54:51.671Z,22.6
2022-11-05T10:57:09.338Z,22.5
2022-11-05T10:59:26.407Z,22.1
2022-11-05T11:01:43.885Z,22.1
2022-11-05T11:04:01.246Z,22.6
2022-11-05T11:06:18.539Z,22.5
2022-11-05T11:08:36.010Z,22.8
2022-11-05T11:10:53.906Z,22.2
2022-11-05T11:13:10.946Z,22.8
2022-11-05T11:15:28.252Z,22.7
2022-11-05T11:17:45.623Z,22.6
2022-11-05T11:20:03.376Z,22.6
2022-11-05T11:22:20.684Z,22.5
2022-11-05T11:24:38.305Z,22.5
2022-11-05T11:26:55.771Z,23.1
2022-11-05T11:29:13.112Z,22.5
2022-11-05T11:31:30.701Z,22.9
2022-11-05T11:33:48.103Z,22.9
2022-11-05T11:36:05.817Z,22.4
2022-11-05T11:38:23.168Z,22.4
2022-11-05T11:40:40.823Z,22.9
2022-11-05T11:42:58.461Z,22.1
2022-11-05T11:45:15.815Z,21.8
2022-11-05T11:47:33.301Z,22.4
2022-11-05T11:49:50.752Z,22.4
2022-11-05T11:52:08.195Z,22.6
2022-11-05T11:54:28.929Z,22.6
2022-11-05T11:56:43.199Z,22.6
2022-11-05T11:59:00.586Z,22.4
2022-11-05T12:01:40.666Z,22.6
2022-11-05T12:03:58.082Z,22.5
2022-11-05T12:06:15.457Z,22.3
2022-11-05T12:08:32.976Z,22.3
2022-11-05T12:10:50.248Z,21.6
2022-11-05T12:13:07.622Z,22.2
2022-11-05T12:15:25.242Z,22.6
2022-11-05T12:17:42.916Z,21.6
2022-11-05T12:20:00.544Z,21.8
2022-11-05T12:22:25.108Z,21.6
2022-11-05T12:24:42.877Z,21.6
2022-11-05T12:27:00.613Z,21.6
2022-11-05T12:29:36.150Z,21.6
2022-11-05T12:31:53.253Z,21.5
2022-11-05T12:34:11.565Z,21.5
2022-11-05T12:36:29.447Z,21.7
2022-11-05T12:38:46.364Z,21.7
2022-11-05T12:41:04.154Z,21.3
2022-11-05T12:43:21.856Z,21.4
2022-11-05T12:45:39.537Z,21.3
2022-11-05T12:47:57.448Z,21.6
2022-11-05T12:50:15.426Z,21.5
2022-11-05T12:52:32.861Z,21.4
2022-11-05T12:54:50.759Z,21.3
2022-11-05T12:57:08.270Z,21.6
2022-11-05T12:59:26.079Z,21.6
2022-11-05T13:01:43.917Z,21.6
2022-11-05T13:04:01.590Z,21.6
2022-11-05T13:06:19.145Z,21.6
2022-11-05T13:08:36.861Z,21.4
2022-11-05T13:10:54.564Z,21.3
2022-11-05T13:13:12.574Z,21.3
2022-11-05T13:15:30.098Z,21.3
2022-11-05T13:17:47.784Z,21.4
2022-11-05T13:20:05.572Z,21.4
2022-11-05T13:22:23.236Z,21.5
2022-11-05T13:24:40.852Z,21.4
2022-11-05T13:26:58.524Z,21.4
2022-11-05T13:29:16.234Z,21.3
2022-11-05T13:31:33.986Z,21.4
2022-11-05T13:33:51.803Z,21.3
2022-11-05T13:36:09.630Z,21.2
2022-11-05T13:45:20.201Z,21
2022-11-05T13:47:37.972Z,21.2
2022-11-05T13:52:13.346Z,21.3
2022-11-05T13:54:30.979Z,21.3
2022-11-05T13:56:48.829Z,21.4
2022-11-05T13:59:06.290Z,21.6
2022-11-05T14:01:24.391Z,21.3
2022-11-05T14:03:41.805Z,21.3
2022-11-05T14:05:59.526Z,21.4
2022-11-05T14:08:17.283Z,21.2
2022-11-05T14:10:35.014Z,21.3
2022-11-05T14:12:52.652Z,21.3
2022-11-05T14:15:10.491Z,21.2
2022-11-05T14:17:28.192Z,21.4
2022-11-05T14:19:45.810Z,21.4
2022-11-05T14:22:03.472Z,21.3
2022-11-05T14:24:21.303Z,21.3
2022-11-05T14:31:14.387Z,21
2022-11-05T14:33:58.885Z,21.4
2022-11-05T14:36:16.626Z,21.3
2022-11-05T14:38:34.205Z,21.4
2022-11-05T14:40:51.987Z,21.6
2022-11-05T14:43:09.913Z,21
2022-11-05T14:45:27.308Z,21.2
2022-11-05T14:47:44.936Z,21.1
2022-11-05T14:52:20.582Z,21
2022-11-05T14:54:38.262Z,20.9
2022-11-05T14:56:56.688Z,21.1
2022-11-05T15:01:31.642Z,21
2022-11-05T15:03:49.330Z,21.2
2022-11-05T15:08:24.772Z,20.9
2022-11-05T15:10:42.501Z,21.1
2022-11-05T15:13:00.190Z,21.1
2022-11-05T15:15:21.665Z,20.9
2022-11-05T15:17:35.431Z,20.9
2022-11-05T15:19:53.228Z,20.9
2022-11-05T15:22:11.020Z,21.1
2022-11-05T15:24:28.743Z,21.1
2022-11-05T15:26:46.471Z,20.9
2022-11-05T15:29:04.243Z,21
2022-11-05T15:31:21.932Z,20.9
2022-11-05T15:35:57.545Z,20.9
2022-11-05T15:38:15.300Z,20.9
2022-11-05T15:40:49.840Z,20.8
2022-11-05T15:43:07.506Z,20.8
2022-11-05T15:45:25.326Z,20.8
2022-11-05T15:47:42.876Z,20.8
2022-11-05T15:50:00.653Z,20.7
2022-11-05T15:52:18.271Z,20.8
2022-11-05T15:55:20.250Z,20.6
2022-11-05T15:57:40.390Z,20.8
2022-11-05T15:59:55.644Z,20.8
2022-11-05T16:02:13.578Z,20.7
2022-11-05T16:04:31.055Z,20.4
2022-11-05T16:06:48.932Z,20.5
2022-11-05T16:09:06.700Z,20.4
2022-11-05T16:11:24.510Z,20.8
2022-11-05T16:13:42.233Z,20.7
2022-11-05T16:15:59.893Z,20.8
2022-11-05T16:18:17.667Z,20.6
2022-11-05T16:20:35.341Z,20.8
2022-11-05T16:22:53.155Z,20.4
2022-11-05T16:25:10.913Z,20.6
2022-11-05T16:27:49.158Z,20.6
2022-11-05T16:30:06.890Z,20.4
2022-11-05T16:32:29.654Z,20.3
2022-11-05T16:34:42.347Z,20.9
2022-11-05T16:36:59.916Z,20.5
2022-11-05T16:39:17.738Z,20.6
2022-11-05T16:41:35.357Z,20.6
2022-11-05T16:43:53.178Z,20.5
2022-11-05T16:46:10.955Z,20.7
2022-11-05T16:48:28.637Z,20.5
2022-11-05T16:50:46.400Z,20.6
2022-11-05T16:53:04.160Z,20.6
2022-11-05T16:55:22.156Z,20.5
2022-11-05T16:57:39.515Z,20.4
2022-11-05T16:59:57.211Z,20.4
2022-11-05T17:02:15.047Z,20.6
2022-11-05T17:04:32.653Z,20.3
2022-11-05T17:06:50.512Z,20.8
2022-11-05T17:09:08.189Z,20.4
2022-11-05T17:11:25.828Z,20.6
2022-11-05T17:13:43.607Z,20.6
2022-11-05T17:16:01.246Z,20.2
2022-11-05T17:18:19.725Z,20.6
2022-11-05T17:20:40.610Z,20.4
2022-11-05T17:22:54.964Z,20.2
2022-11-05T17:25:12.741Z,20.3
2022-11-05T17:27:30.769Z,20.4
2022-11-05T17:29:48.445Z,20.4
2022-11-05T17:32:06.345Z,20.4
2022-11-05T17:34:24.242Z,20.3
2022-11-05T17:36:41.780Z,20.4
2022-11-05T17:38:59.799Z,20.7
2022-11-05T17:41:17.768Z,20.4
2022-11-05T17:43:35.419Z,20.3
2022-11-05T17:45:53.157Z,20.1
2022-11-05T17:48:11.116Z,20.4
2022-11-05T17:50:28.937Z,20.1
2022-11-05T17:52:46.873Z,20.4
2022-11-05T17:55:04.581Z,20.4
2022-11-05T17:57:22.220Z,20.3
2022-11-05T17:59:40.198Z,20.3
2022-11-05T18:01:57.978Z,20.3
2022-11-05T18:04:15.862Z,20.6
2022-11-05T18:06:33.684Z,20.6
2022-11-05T18:08:51.581Z,20.2
2022-11-05T18:11:09.398Z,20.2
2022-11-05T18:13:27.346Z,20.3
2022-11-05T18:15:45.091Z,20.4
2022-11-05T18:18:03.067Z,20.4
2022-11-05T18:20:20.883Z,20.3
2022-11-05T18:22:38.640Z,19.9
2022-11-05T18:24:56.682Z,19.8
2022-11-05T18:27:14.656Z,19.9
2022-11-05T18:29:32.515Z,20.5
2022-11-05T18:31:50.117Z,20.4
2022-11-05T18:34:08.056Z,20.3
2022-11-05T18:36:25.794Z,20.3
2022-11-05T18:38:43.777Z,20.2
2022-11-05T18:41:01.426Z,20.1
2022-11-05T18:43:19.489Z,20.4
2022-11-05T18:45:37.138Z,20.1
2022-11-05T18:48:15.316Z,20.1
2022-11-05T18:50:33.133Z,20.3
2022-11-05T18:52:51.009Z,20.1
2022-11-05T18:55:08.972Z,19.8
2022-11-05T18:57:26.162Z,20.3
2022-11-05T19:00:03.198Z,20.3
2022-11-05T19:02:21.238Z,20.4
2022-11-05T19:04:38.832Z,20.3
2022-11-05T19:07:18.070Z,20.3
2022-11-05T19:09:35.279Z,20.1
2022-11-05T19:11:52.957Z,20.1
2022-11-05T19:14:10.727Z,20.1
2022-11-05T19:16:29.026Z,20.3
2022-11-05T19:18:46.181Z,20.1
2022-11-05T19:21:03.935Z,19.9
2022-11-05T19:23:21.789Z,20.1
2022-11-05T19:25:39.491Z,20.2
2022-11-05T19:27:57.271Z,20.1
2022-11-05T19:30:14.976Z,20.2
2022-11-05T19:32:32.875Z,20.1
2022-11-05T19:34:50.475Z,20.2
2022-11-05T19:37:08.161Z,20.1
2022-11-05T19:39:25.902Z,20.3
2022-11-05T19:41:43.735Z,20.3
2022-11-05T19:44:01.843Z,20.1
2022-11-05T19:46:34.067Z,20.3
2022-11-05T19:48:51.810Z,20.1
2022-11-05T19:51:09.541Z,20.3
2022-11-05T19:53:27.386Z,20.3
2022-11-05T19:55:44.885Z,19.9
2022-11-05T19:58:02.544Z,20.3
2022-11-05T20:00:20.370Z,20
2022-11-05T20:02:38.265Z,20.1
2022-11-05T20:04:55.866Z,19.9
2022-11-05T20:07:13.663Z,20.2
2022-11-05T20:09:48.122Z,20.1
2022-11-05T20:12:05.984Z,20.2
2022-11-05T20:14:23.602Z,20.3
2022-11-05T20:16:41.840Z,20.1
2022-11-05T20:18:59.008Z,19.9
2022-11-05T20:21:16.843Z,20.4
2022-11-05T20:23:34.433Z,20.1
2022-11-05T20:25:52.228Z,20.1
2022-11-05T20:28:10.282Z,20.1
2022-11-05T20:30:27.514Z,19.8
2022-11-05T20:32:45.256Z,20.5
2022-11-05T20:35:03.917Z,20.1
2022-11-05T20:37:20.709Z,19.9
2022-11-05T20:39:38.277Z,19.9
2022-11-05T20:41:56.075Z,20.4
2022-11-05T20:44:13.789Z,20
2022-11-05T20:46:31.629Z,20.1
2022-11-05T20:48:49.418Z,20.3
2022-11-05T20:51:07.057Z,19.9
2022-11-05T20:53:24.677Z,19.9
2022-11-05T20:55:42.260Z,19.8
2022-11-05T20:57:59.835Z,20.1
2022-11-05T21:00:17.651Z,20.3
2022-11-05T21:02:35.443Z,19.9
2022-11-05T21:04:53.048Z,20.1
2022-11-05T21:07:10.896Z,19.9
2022-11-05T21:09:29.147Z,20.2
2022-11-05T21:11:46.351Z,20.3
2022-11-05T21:14:04.037Z,19.9
2022-11-05T21:16:21.550Z,19.8
2022-11-05T21:18:39.198Z,20.1
2022-11-05T21:20:56.989Z,20
2022-11-05T21:23:14.521Z,19.9
2022-11-05T21:25:32.138Z,19.9
2022-11-05T21:27:49.748Z,19.9
2022-11-05T21:30:07.421Z,19.8
2022-11-05T21:32:25.283Z,20.1
2022-11-05T21:34:42.943Z,19.9
2022-11-05T21:37:00.698Z,19.7
2022-11-05T21:39:18.308Z,19.5
2022-11-05T21:41:35.924Z,20.1
2022-11-05T21:43:54.097Z,20.4
2022-11-05T21:46:11.449Z,19.7
2022-11-05T21:48:28.947Z,19.6
2022-11-05T21:50:46.663Z,20.1
2022-11-05T21:53:04.292Z,20.1
2022-11-05T21:55:21.898Z,20.2
2022-11-05T21:57:39.830Z,19.8
2022-11-05T21:59:57.288Z,19.5
2022-11-05T22:02:15.195Z,19.8
2022-11-05T22:04:32.637Z,20.1
2022-11-05T22:06:50.667Z,19.6
2022-11-05T22:09:07.871Z,20.1
2022-11-05T22:11:25.646Z,19.9
2022-11-05T22:13:43.243Z,19.5
2022-11-05T22:16:00.810Z,19.9
2022-11-05T22:18:18.468Z,20.4
2022-11-05T22:20:36.162Z,20.1
2022-11-05T22:22:53.714Z,20.1
2022-11-05T22:25:11.299Z,19.9
2022-11-05T22:27:28.992Z,19.9
2022-11-05T22:29:46.659Z,19.4
2022-11-05T22:32:04.422Z,20.2
2022-11-05T22:34:21.844Z,19.4
2022-11-05T22:36:39.473Z,19.9
2022-11-05T22:38:57.019Z,20.1
2022-11-05T22:41:14.705Z,20
2022-11-05T22:43:32.216Z,20
2022-11-05T22:45:49.882Z,19.9
2022-11-05T22:48:08.097Z,19.7
2022-11-05T22:50:25.188Z,19.6
2022-11-05T22:52:43.112Z,19.8
2022-11-05T22:55:00.499Z,19.9
2022-11-05T22:57:18.218Z,19.9
2022-11-05T22:59:35.817Z,19.6
2022-11-05T23:01:53.773Z,20.2
2022-11-05T23:04:10.994Z,20
2022-11-05T23:06:28.732Z,20
2022-11-05T23:08:46.619Z,19.4
2022-11-05T23:11:04.124Z,19.3
2022-11-05T23:13:21.833Z,19.6
2022-11-05T23:15:39.415Z,20.1
2022-11-05T23:17:57.069Z,19.5
2022-11-05T23:20:14.638Z,20.1
2022-11-05T23:22:32.248Z,19.8
2022-11-05T23:24:49.842Z,19.9
2022-11-05T23:27:07.551Z,19.9
2022-11-05T23:29:24.977Z,19.9
2022-11-05T23:31:43.327Z,19.8
2022-11-05T23:34:00.374Z,19.5
2022-11-05T23:36:17.982Z,19.8
2022-11-05T23:38:35.698Z,20
2022-11-05T23:40:53.270Z,19.9
2022-11-05T23:43:10.889Z,19.5
2022-11-05T23:45:28.504Z,20
2022-11-05T23:47:46.311Z,19.9
2022-11-05T23:50:04.109Z,19.6
2022-11-05T23:52:21.921Z,19.4
2022-11-05T23:54:39.447Z,19.1
2022-11-05T23:56:57.303Z,20.1
2022-11-05T23:59:14.887Z,19.2
